createdAt,value
2022-09-07T00:04:26.182Z,15.5
2022-09-07T00:18:50.391Z,15.8
2022-09-07T00:33:15.218Z,17.6
2022-09-07T00:47:42.142Z,18.5
2022-09-07T01:02:11.908Z,18.6
2022-09-07T01:16:40.324Z,18.2
2022-09-07T01:31:15.558Z,18.5
2022-09-07T01:45:44.456Z,18.2
2022-09-07T02:00:08.544Z,18.2
2022-09-07T02:14:36.988Z,18.5
2022-09-07T02:29:04.850Z,18.5
2022-09-07T02:43:39.061Z,18.8
2022-09-07T02:58:10.306Z,18.3
2022-09-07T03:12:34.348Z,18.2
2022-09-07T03:27:01.905Z,18.2
2022-09-07T03:41:30.093Z,17.7
2022-09-07T03:55:55.924Z,17.7
2022-09-07T04:10:24.545Z,17.6
2022-09-07T04:24:52.803Z,17.7
2022-09-07T04:39:24.122Z,17.5
2022-09-07T04:53:55.398Z,17.2
2022-09-07T05:08:26.199Z,17.3
2022-09-07T05:22:51.828Z,17.4
2022-09-07T05:37:19.530Z,17.5
2022-09-07T05:51:48.246Z,17.7
2022-09-07T06:06:22.034Z,18.4
2022-09-07T06:20:52.252Z,18.2
2022-09-07T06:35:17.333Z,18.8
2022-09-07T06:49:46.689Z,18.7
2022-09-07T07:04:16.109Z,18.9
2022-09-07T07:18:45.094Z,19
2022-09-07T07:33:23.773Z,18.1
2022-09-07T07:47:47.128Z,18.7
2022-09-07T08:02:14.860Z,18.9
2022-09-07T08:16:59.192Z,18
2022-09-07T08:31:34.714Z,18.7
2022-09-07T08:46:05.438Z,17.8
2022-09-07T09:00:36.676Z,17.5
2022-09-07T09:15:04.605Z,18.3
2022-09-07T09:29:39.849Z,18.2
2022-09-07T09:44:07.014Z,17.2
2022-09-07T09:59:57.045Z,17.7
2022-09-07T10:13:55.119Z,18.3
2022-09-07T10:28:23.743Z,17.1
2022-09-07T10:43:23.048Z,17.1
2022-09-07T10:57:31.329Z,17.1
2022-09-07T11:12:04.899Z,17.4
2022-09-07T11:26:29.477Z,17.1
2022-09-07T11:40:58.506Z,16.9
2022-09-07T11:55:26.483Z,16.9
2022-09-07T12:09:55.515Z,16.5
2022-09-07T12:24:23.999Z,17.1
2022-09-07T12:38:48.907Z,16.5
2022-09-07T12:53:24.267Z,16.4
2022-09-07T13:08:09.711Z,15.6
2022-09-07T13:22:25.423Z,15.6
2022-09-07T13:36:52.688Z,15.4
2022-09-07T13:51:21.458Z,14.9
2022-09-07T14:05:50.867Z,14.9
2022-09-07T14:20:17.306Z,15.4
2022-09-07T14:34:45.949Z,15
2022-09-07T14:49:21.498Z,14.8
2022-09-07T15:03:50.762Z,14.6
2022-09-07T15:18:13.852Z,14.4
2022-09-07T15:32:43.497Z,14.9
2022-09-07T15:47:53.086Z,14.7
2022-09-07T16:02:03.806Z,14.8
2022-09-07T16:17:46.782Z,14.9
2022-09-07T16:32:52.392Z,14.6
2022-09-07T16:46:53.409Z,14.9
2022-09-07T17:01:22.439Z,14.8
2022-09-07T17:15:48.473Z,14.8
2022-09-07T17:30:17.027Z,15.7
2022-09-07T17:44:43.466Z,15.6
2022-09-07T18:00:12.731Z,15.7
2022-09-07T18:14:11.404Z,15.3
2022-09-07T18:29:32.182Z,15.7
2022-09-07T18:43:36.042Z,15.3
2022-09-07T18:58:06.249Z,15.8
2022-09-07T19:12:32.580Z,15.5
2022-09-07T19:27:01.779Z,15.7
2022-09-07T19:41:28.512Z,15.2
2022-09-07T19:55:57.729Z,15.7
2022-09-07T20:10:27.538Z,15.6
2022-09-07T20:24:53.770Z,15.9
2022-09-07T20:39:20.692Z,15.7
2022-09-07T20:53:47.769Z,15.6
2022-09-07T21:08:16.255Z,15.8
2022-09-07T21:22:44.700Z,15.7
2022-09-07T21:37:11.790Z,15.4
2022-09-07T21:51:37.706Z,15.2
2022-09-07T22:06:05.893Z,15
2022-09-07T22:20:35.252Z,15.4
2022-09-07T22:35:02.721Z,15.5
2022-09-07T22:49:30.265Z,15.4
2022-09-07T23:03:59.972Z,15.3
2022-09-07T23:18:29.783Z,15.5
2022-09-07T23:32:57.251Z,15.5
2022-09-07T23:47:25.292Z,15.3
